Middleton, Texas
Current Conditions -  °F | °C
As of 9:15 AM on Wednesday 22 Oct 2014 (Local Time) from KDKR Reporting Station
Haze Haze  
Wind Chill: 70°   Ceiling: Unl
Heat Index: 70°   Visibility: 4mi
Dew Point: 66°   Wind: 3mph
Humidity: 88%   Direction: 50°NE
Pressure: 30.17"   Gusts: NA
Location:  31.2807°N, 95.8748°W
Report Text: KDKR 221415Z AUTO 05003KT 4SM BR CLR 21/19 A3017 RMK AO2
Loading
Personal Weather Stations






























Interactive Weather Map
Tropical Storm Tracking
New forecast layout! Learn more

10-Day Weather Forecast

Advertisements
Track Severe Weather on mobile